Flight Track Log - Related Links

Times and Time Zones

All times are in EDT time to prevent confusion due to time zone crossing. See the NKS446 flight status page for this flight to view local times or setup timezone preferences in your user account.

Time Position Orientation Groundspeed Altitude Reporting Facility
EDT Latitude Longitude Course Direction KTS MPH feet Rate Location/Type
Sun 03:00:30 PM 32.7500 -117.2167 292° West 154 177 1,500  Level Southern California TRACON
Sun 03:01:31 PM 32.7667 -117.2667 306° West 217 250 3,400 2,579 Climbing Southern California TRACON
Sun 03:02:31 PM 32.8167 -117.3500 312° West 281 323 6,700 3,400 Climbing Southern California TRACON
Sun 03:03:31 PM 32.8667 -117.4167 316° Northwest 293 337 10,200 2,707 Climbing Southern California TRACON
Sun 03:04:44 PM 32.9403 -117.5022 310° West 304 350 12,700 2,571 Climbing Los Angeles Center
Sun 03:05:44 PM 32.9997 -117.5872 312° West 326 375 15,900 2,950 Climbing Los Angeles Center
Sun 03:06:44 PM 33.0656 -117.6753 312° West 341 392 18,600 2,975 Climbing Los Angeles Center
Sun 03:07:45 PM 33.1331 -117.7656 314° West 348 400 21,900 2,950 Climbing Los Angeles Center
Sun 03:08:44 PM 33.2008 -117.8489 360° North 353 406 24,500 2,571 Climbing Los Angeles Center
Sun 03:09:44 PM 33.3011 -117.8483 North 331 381 27,000 2,250 Climbing Los Angeles Center
Sun 03:10:44 PM 33.4119 -117.8431 North 331 381 29,000 1,000 Climbing Los Angeles Center
Sun 03:11:44 PM 33.5122 -117.8353 North 343 395 29,000  Level Los Angeles Center
Sun 03:12:44 PM 33.6144 -117.8247 North 358 412 29,000  Level Los Angeles Center
Sun 03:13:44 PM 33.7169 -117.8169 North 363 418 29,000  Level Los Angeles Center
Sun 03:14:44 PM 33.8192 -117.8089 North 363 418 29,000  Level Los Angeles Center
Sun 03:15:44 PM 33.9194 -117.8008 12° North 363 418 29,000  Level Los Angeles Center
Sun 03:16:44 PM 34.0286 -117.7731 27° Northeast 375 432 29,000  Level Los Angeles Center
Sun 03:17:44 PM 34.1231 -117.7147 44° Northeast 398 458 29,000  Level Los Angeles Center
Sun 03:18:44 PM 34.2186 -117.6033 48° Northeast 428 493 29,000  Level Los Angeles Center
Sun 03:19:44 PM 34.3075 -117.4842 45° Northeast 443 510 29,000  Level Los Angeles Center
Sun 03:20:44 PM 34.4069 -117.3625 54° Northeast 463 533 29,000  Level Los Angeles Center
Sun 03:21:45 PM 34.4769 -117.2450 48° Northeast 468 539 29,000  Level Los Angeles Center
Sun 03:22:44 PM 34.5636 -117.1278 48° Northeast 468 539 29,000  Level Los Angeles Center
Sun 03:23:44 PM 34.6606 -116.9950 49° Northeast 468 539 29,000  Level Los Angeles Center
Sun 03:24:44 PM 34.7447 -116.8772 48° Northeast 473 544 29,000  Level Los Angeles Center
Sun 03:25:44 PM 34.8311 -116.7589 48° Northeast 473 544 29,000 -150 Level Los Angeles Center
Sun 03:26:44 PM 34.9172 -116.6406 48° Northeast 467 537 28,700 -1,000 Descending Los Angeles Center
Sun 03:27:44 PM 35.0053 -116.5219 45° Northeast 462 532 27,000 -2,100 Descending Los Angeles Center
Sun 03:28:44 PM 35.0911 -116.4158 45° Northeast 448 516 24,500 -1,500 Descending Los Angeles Center
Sun 03:29:44 PM 35.1747 -116.3144 47° Northeast 430 495 24,000 -250 Descending Los Angeles Center
Sun 03:30:44 PM 35.2542 -116.2103 46° Northeast 419 482 24,000 -756 Level Los Angeles Center
Sun 03:31:43 PM 35.3356 -116.1086 46° Northeast 419 482 22,500 -1,900 Descending Los Angeles Center
Sun 03:32:44 PM 35.4150 -116.0067 45° Northeast 414 476 20,200 -2,350 Descending Los Angeles Center
Sun 03:33:43 PM 35.4919 -115.9122 46° Northeast 395 455 17,800 -2,410 Descending Los Angeles Center
Sun 03:34:41 PM 35.5628 -115.8225 46° Northeast 390 449 15,500 -2,331 Descending Los Angeles Center
Sun 03:35:44 PM 35.6333 -115.7328 51° Northeast 379 436 13,100 -1,366 Descending Los Angeles Center
Sun 03:36:44 PM 35.6917 -115.6456 64° Northeast 358 412 12,700 -1,048 Descending Los Angeles Center
Sun 03:37:50 PM 35.7369 -115.5303 64° Northeast 307 353 10,900 -1,500 Descending Los Angeles Center
Sun 03:38:44 PM 35.7658 -115.4558 53° Northeast 307 353 9,700 -1,474 Descending Los Angeles Center
Sun 03:39:44 PM 35.8153 -115.3758 52° Northeast 301 346 8,100 -1,160 Descending Los Angeles Center
Sun 03:40:43 PM 35.8608 -115.3039 33° Northeast 280 322 7,400 -900 Descending Los Angeles Center
Sun 03:41:44 PM 35.9128 -115.2622 24° Northeast 242 278 6,300 -1,339 Descending Los Angeles Center
Sun 03:42:44 PM 35.9606 -115.2361 29° Northeast 204 235 4,700 -1,050 Descending Los Angeles Center
Sun 03:43:44 PM 36.0103 -115.2022 19° North 190 219 4,200 12,150 Descending Los Angeles Center
Sun 03:44:44 PM 36.0353 -115.1917 26° Northeast 175 201 29,000 -800 Climbing Los Angeles Center
Sun 03:45:44 PM 36.0747 -115.1681 22° Northeast 155 178 2,600 -13,450 Descending Los Angeles Center
Sun 03:46:44 PM 36.1058 -115.1522 72° East 146 168 2,100 -250 Descending Los Angeles Center
Sun 03:47:44 PM 36.1139 -115.1214 30° Northeast 138 159 2,100 13,450 Level Los Angeles Center
Sun 03:48:44 PM 36.1431 -115.1003 31° Northeast 138 159 29,000 13,450 Climbing Los Angeles Center
Sun 03:49:44 PM 36.1678 -115.0819 32° Northeast 138 159 29,000  Level Los Angeles Center
Sun 03:50:44 PM 36.1947 -115.0611 32° Northeast 138 159 29,000  Level Los Angeles Center

Login

Don't have an account? Register now (free) for customized features, flight alerts, and more!